Time;durP1;ratioP1;P1;durP2;ratioP2;P2;SDS_P1;SDS_P2;PMS_P1;PMS_P2;Temp;Humidity;BMP_temperature;BMP_pressure;BME280_temperature;BME280_humidity;BME280_pressure;Samples;Min_cycle;Max_cycle;Signal;HPM_P1;HPM_P2
2023/01/01 00:01:12;;;;;;;16.83;7.28;;;13.60;99.90;;;;;;4980006;28;20084;-81
2023/01/01 00:03:38;;;;;;;19.60;7.40;;;14.00;99.90;;;;;;4973546;28;20548;-81
2023/01/01 00:06:08;;;;;;;15.65;6.95;;;13.60;99.90;;;;;;4971799;28;20438;-80
2023/01/01 00:08:34;;;;;;;15.05;6.90;;;13.50;99.90;;;;;;4974079;28;20133;-81
2023/01/01 00:11:02;;;;;;;18.38;5.97;;;13.60;99.90;;;;;;5008228;28;20058;-80
2023/01/01 00:13:27;;;;;;;13.50;6.25;;;13.70;99.90;;;;;;4993282;28;20043;-80
2023/01/01 00:15:53;;;;;;;10.70;6.13;;;14.40;99.90;;;;;;4988613;28;20057;-81
2023/01/01 00:18:18;;;;;;;16.05;6.93;;;13.50;99.90;;;;;;4989779;28;20053;-80
2023/01/01 00:20:44;;;;;;;24.55;7.22;;;13.50;99.90;;;;;;4989070;28;20054;-81
2023/01/01 00:23:10;;;;;;;18.58;9.02;;;14.40;99.90;;;;;;4994152;28;20049;-81
2023/01/01 00:25:35;;;;;;;13.70;7.50;;;13.50;99.90;;;;;;5007239;28;20046;-81
2023/01/01 00:28:01;;;;;;;17.52;8.70;;;14.00;99.90;;;;;;4988108;28;20042;-83
2023/01/01 00:30:27;;;;;;;21.17;9.90;;;13.50;99.90;;;;;;4986380;28;20751;-82
2023/01/01 00:32:53;;;;;;;22.08;11.65;;;14.00;99.90;;;;;;5003346;28;20061;-80
2023/01/01 00:35:18;;;;;;;21.05;8.82;;;13.30;99.90;;;;;;4987436;28;20038;-81
2023/01/01 00:37:44;;;;;;;19.13;8.38;;;14.20;99.90;;;;;;4988552;28;20500;-81
2023/01/01 00:40:10;;;;;;;19.85;9.25;;;13.50;99.90;;;;;;4988588;28;20050;-80
2023/01/01 00:42:39;;;;;;;25.13;11.07;;;13.30;99.90;;;;;;4989035;28;20034;-81
2023/01/01 00:45:06;;;;;;;20.40;8.95;;;13.30;99.90;;;;;;4987125;28;20097;-81
2023/01/01 00:47:31;;;;;;;19.55;11.00;;;13.20;99.90;;;;;;5011550;28;20167;-80
2023/01/01 00:49:57;;;;;;;25.20;11.85;;;13.30;99.90;;;;;;4965994;28;20049;-80
2023/01/01 00:52:22;;;;;;;21.50;11.05;;;13.20;99.90;;;;;;4965152;28;20483;-81
2023/01/01 00:54:48;;;;;;;22.27;11.55;;;14.20;99.90;;;;;;5010656;28;20744;-80
2023/01/01 00:57:14;;;;;;;22.40;11.40;;;13.20;99.90;;;;;;5005372;28;20038;-80
2023/01/01 00:59:39;;;;;;;26.75;13.35;;;13.20;99.90;;;;;;4987373;28;20505;-80
2023/01/01 01:02:05;;;;;;;23.45;13.75;;;14.40;99.90;;;;;;4971142;28;20394;-79
2023/01/01 01:04:31;;;;;;;24.65;13.90;;;14.10;99.90;;;;;;4970524;28;20048;-79
2023/01/01 01:06:56;;;;;;;30.90;14.80;;;13.20;99.90;;;;;;4970105;28;20071;-79
2023/01/01 01:09:22;;;;;;;29.00;17.27;;;13.20;99.90;;;;;;4970938;28;20092;-80
2023/01/01 01:11:48;;;;;;;29.08;18.05;;;13.20;99.90;;;;;;4988051;28;20055;-81
2023/01/01 01:14:14;;;;;;;34.25;18.08;;;13.30;99.90;;;;;;4972927;28;20046;-80
2023/01/01 01:16:40;;;;;;;37.72;19.20;;;13.20;99.90;;;;;;5005974;28;20093;-80
2023/01/01 01:19:06;;;;;;;37.22;20.13;;;13.10;99.90;;;;;;4988248;28;20052;-80
2023/01/01 01:21:33;;;;;;;33.33;20.85;;;13.10;99.90;;;;;;5010032;28;20522;-79
2023/01/01 01:24:01;;;;;;;36.80;22.08;;;13.10;99.90;;;;;;5002175;28;20045;-81
2023/01/01 01:26:29;;;;;;;32.47;22.08;;;13.00;99.90;;;;;;5014004;28;20121;-80
2023/01/01 01:28:55;;;;;;;36.60;23.50;;;13.00;99.90;;;;;;4981478;28;20410;-80
2023/01/01 01:31:23;;;;;;;33.38;22.63;;;12.90;99.90;;;;;;4990721;28;20038;-81
2023/01/01 01:33:49;;;;;;;38.85;24.48;;;12.90;99.90;;;;;;4980599;28;20490;-81
2023/01/01 01:36:17;;;;;;;35.97;21.77;;;12.80;99.90;;;;;;4981354;28;20122;-81
2023/01/01 01:38:43;;;;;;;40.38;22.85;;;12.80;99.90;;;;;;4989839;28;20069;-81
2023/01/01 01:41:18;;;;;;;31.27;22.95;;;12.80;99.90;;;;;;4972674;28;20046;-81
2023/01/01 01:43:55;;;;;;;35.88;21.45;;;12.80;99.90;;;;;;5013811;28;20041;-81
2023/01/01 01:46:38;;;;;;;35.10;23.35;;;12.70;99.90;;;;;;5012513;28;20382;-81
2023/01/01 01:49:25;;;;;;;36.97;24.45;;;12.70;99.90;;;;;;4979879;28;20030;-81
2023/01/01 01:51:51;;;;;;;34.67;23.90;;;12.70;99.90;;;;;;4975807;28;20046;-81
2023/01/01 01:54:20;;;;;;;38.67;27.42;;;13.00;99.90;;;;;;4988588;28;20042;-80
2023/01/01 01:56:54;;;;;;;36.88;23.45;;;12.60;99.90;;;;;;4990485;28;20172;-81
2023/01/01 01:59:23;;;;;;;42.95;27.45;;;12.60;99.90;;;;;;4959174;28;20046;-80
2023/01/01 02:01:49;;;;;;;37.17;27.27;;;12.50;99.90;;;;;;5013015;28;20042;-81
2023/01/01 02:04:16;;;;;;;42.97;29.65;;;12.50;99.90;;;;;;4997068;28;20426;-81
2023/01/01 02:06:43;;;;;;;47.30;33.05;;;13.20;99.90;;;;;;4993049;28;20054;-81
2023/01/01 02:09:10;;;;;;;45.67;32.25;;;12.40;99.90;;;;;;4988229;28;20044;-82
2023/01/01 02:11:36;;;;;;;45.45;32.15;;;13.40;99.90;;;;;;5014010;28;20081;-83
2023/01/01 02:14:02;;;;;;;44.38;33.30;;;13.40;99.90;;;;;;4989162;28;20041;-82
2023/01/01 02:16:56;;;;;;;54.05;34.00;;;12.20;99.90;;;;;;5014515;28;20046;-83
2023/01/01 02:19:36;;;;;;;47.35;31.67;;;12.20;99.90;;;;;;4989855;28;20141;-82
2023/01/01 02:22:02;;;;;;;49.53;32.75;;;12.20;99.90;;;;;;4995451;28;20495;-81
2023/01/01 02:25:03;;;;;;;42.80;28.83;;;13.20;99.90;;;;;;4981122;28;20066;-81
2023/01/01 02:27:41;;;;;;;37.58;28.25;;;12.20;99.90;;;;;;4985688;28;20042;-84
2023/01/01 02:30:08;;;;;;;40.85;27.60;;;12.20;99.90;;;;;;5004714;28;20050;-82
2023/01/01 02:32:41;;;;;;;39.35;26.70;;;12.40;99.90;;;;;;4989632;28;20387;-82
2023/01/01 02:35:34;;;;;;;35.50;26.20;;;12.30;99.90;;;;;;4986311;28;20749;-82
2023/01/01 02:38:04;;;;;;;35.28;24.23;;;12.30;99.90;;;;;;4989977;28;20447;-82
2023/01/01 02:40:32;;;;;;;35.17;24.13;;;12.30;99.90;;;;;;4994636;28;20175;-82
2023/01/01 02:42:59;;;;;;;35.72;25.45;;;13.30;99.90;;;;;;5015598;28;20287;-80
2023/01/01 02:45:25;;;;;;;33.63;23.15;;;13.50;99.90;;;;;;5012742;28;20077;-82
2023/01/01 02:47:50;;;;;;;32.97;20.45;;;13.20;99.90;;;;;;4979827;28;20054;-82
2023/01/01 02:50:22;;;;;;;29.52;21.58;;;13.10;99.90;;;;;;4978662;28;20038;-82
2023/01/01 02:52:48;;;;;;;33.95;19.15;;;12.30;99.90;;;;;;4979988;28;20057;-83
2023/01/01 02:55:38;;;;;;;36.33;19.45;;;12.40;99.90;;;;;;4980119;28;20046;-83
2023/01/01 03:00:18;;;;;;;30.23;18.05;;;12.30;99.90;;;;;;4978873;28;20054;-82
2023/01/01 03:00:56;;;;;;;30.58;17.98;;;12.30;99.90;;;;;;4989288;28;20042;-82
2023/01/01 03:03:38;;;;;;;30.38;16.42;;;12.20;99.90;;;;;;4979316;28;20050;-82
2023/01/01 03:06:27;;;;;;;27.98;16.88;;;13.30;99.90;;;;;;4986913;28;20045;-81
2023/01/01 03:09:22;;;;;;;23.33;14.02;;;12.30;99.90;;;;;;4964076;28;20594;-82
2023/01/01 03:11:53;;;;;;;31.20;15.68;;;12.30;99.90;;;;;;4976996;28;20038;-82
2023/01/01 03:14:57;;;;;;;27.38;14.60;;;12.30;99.90;;;;;;4995941;28;20048;-83
2023/01/01 03:17:32;;;;;;;31.23;15.18;;;12.20;99.90;;;;;;5005476;28;20042;-83
2023/01/01 03:20:04;;;;;;;25.15;13.57;;;12.10;99.90;;;;;;5011213;28;20057;-82
2023/01/01 03:22:33;;;;;;;29.52;15.52;;;12.00;99.90;;;;;;4974664;28;20039;-83
2023/01/01 03:25:12;;;;;;;24.85;14.20;;;12.00;99.90;;;;;;4977367;28;20038;-83
2023/01/01 03:27:42;;;;;;;30.75;15.00;;;11.80;99.90;;;;;;5012688;28;20109;-84
2023/01/01 03:30:10;;;;;;;22.02;14.75;;;11.70;99.90;;;;;;4995668;28;20108;-83
2023/01/01 03:33:02;;;;;;;24.95;15.30;;;11.60;99.90;;;;;;5012121;28;20487;-85
2023/01/01 03:35:31;;;;;;;22.52;13.70;;;11.60;99.90;;;;;;5009584;28;20038;-83
2023/01/01 03:38:00;;;;;;;25.17;13.68;;;11.30;99.90;;;;;;5032591;28;20048;-82
2023/01/01 03:40:30;;;;;;;25.65;14.27;;;11.50;99.90;;;;;;5015563;28;20510;-82
2023/01/01 03:43:02;;;;;;;23.48;13.82;;;11.50;99.90;;;;;;4992726;28;20066;-84
2023/01/01 03:45:34;;;;;;;22.67;10.82;;;11.40;99.90;;;;;;4998558;28;20158;-82
2023/01/01 03:48:00;;;;;;;22.27;13.07;;;11.30;99.90;;;;;;5015884;28;20046;-84
2023/01/01 03:50:47;;;;;;;22.17;13.30;;;10.80;99.90;;;;;;4992746;28;20125;-84
2023/01/01 03:53:23;;;;;;;16.95;11.10;;;12.60;99.90;;;;;;4982238;28;20038;-81
2023/01/01 03:56:02;;;;;;;20.67;9.52;;;11.20;99.90;;;;;;5004772;28;20667;-82
2023/01/01 03:58:40;;;;;;;20.63;8.75;;;11.20;99.90;;;;;;5007627;28;20038;-86
2023/01/01 04:01:21;;;;;;;21.30;8.55;;;12.10;99.90;;;;;;4991951;28;20046;-85
2023/01/01 04:03:50;;;;;;;19.90;6.63;;;11.20;99.90;;;;;;4995946;28;20049;-83
2023/01/01 04:06:15;;;;;;;16.02;5.63;;;11.30;99.90;;;;;;4989891;28;20054;-85
2023/01/01 04:08:41;;;;;;;8.77;4.60;;;11.30;99.90;;;;;;4973380;28;20034;-83
2023/01/01 04:14:02;;;;;;;12.13;4.53;;;11.70;99.90;;;;;;4986971;28;20125;-83
2023/01/01 04:16:28;;;;;;;10.38;3.53;;;11.40;99.90;;;;;;4954226;28;20455;-82
2023/01/01 04:18:53;;;;;;;19.13;4.25;;;11.40;99.90;;;;;;4986066;28;20506;-83
2023/01/01 04:21:19;;;;;;;17.92;4.88;;;11.40;99.90;;;;;;4960277;28;20038;-82
2023/01/01 04:23:45;;;;;;;13.27;4.40;;;11.40;99.90;;;;;;4973480;28;20105;-83
2023/01/01 04:26:14;;;;;;;21.13;3.78;;;11.50;99.90;;;;;;4989758;28;20042;-82
2023/01/01 04:28:41;;;;;;;16.48;3.70;;;11.50;99.90;;;;;;4978391;28;20048;-84
2023/01/01 04:31:08;;;;;;;17.23;4.75;;;11.50;99.90;;;;;;4974505;28;20038;-81
2023/01/01 04:33:33;;;;;;;18.55;4.90;;;11.50;99.90;;;;;;4973745;28;20475;-84
2023/01/01 04:36:08;;;;;;;20.35;4.03;;;12.50;99.90;;;;;;4970806;28;20125;-84
2023/01/01 04:38:34;;;;;;;16.70;4.35;;;11.40;99.90;;;;;;4986127;28;20163;-85
2023/01/01 04:41:01;;;;;;;20.17;4.60;;;11.40;99.90;;;;;;4995902;28;20052;-83
2023/01/01 04:43:28;;;;;;;22.05;6.10;;;11.50;99.90;;;;;;4970995;28;20034;-85
2023/01/01 04:46:03;;;;;;;15.32;5.65;;;11.40;99.90;;;;;;4968341;28;20486;-84
2023/01/01 04:48:30;;;;;;;17.10;6.32;;;11.40;99.90;;;;;;4953475;28;20059;-83
2023/01/01 04:51:02;;;;;;;18.58;5.70;;;11.40;99.90;;;;;;4967387;28;20042;-82
2023/01/01 04:53:30;;;;;;;13.27;4.32;;;10.70;99.90;;;;;;4994819;28;20096;-85
2023/01/01 04:56:01;;;;;;;15.32;4.15;;;11.40;99.90;;;;;;5000460;28;20584;-83
2023/01/01 04:58:27;;;;;;;12.90;3.80;;;11.40;99.90;;;;;;4952718;28;20046;-82
2023/01/01 05:00:53;;;;;;;16.88;4.45;;;11.40;99.90;;;;;;4976996;28;20054;-82
2023/01/01 05:03:18;;;;;;;16.17;3.80;;;12.80;99.90;;;;;;4983853;28;20038;-82
2023/01/01 05:05:44;;;;;;;10.85;3.22;;;12.70;99.90;;;;;;5017900;28;20153;-82
2023/01/01 05:08:10;;;;;;;14.25;3.75;;;11.40;99.90;;;;;;4982180;28;20356;-85
2023/01/01 05:10:35;;;;;;;13.52;3.40;;;12.90;99.90;;;;;;4960389;28;20046;-81
2023/01/01 05:13:08;;;;;;;16.10;3.78;;;11.40;99.90;;;;;;4967121;28;20051;-84
2023/01/01 05:15:39;;;;;;;12.90;3.05;;;12.30;99.90;;;;;;4959967;28;20046;-84
2023/01/01 05:18:05;;;;;;;9.70;2.63;;;11.40;99.90;;;;;;4998286;28;20055;-86
2023/01/01 05:20:30;;;;;;;14.60;2.67;;;12.30;99.90;;;;;;4963267;28;20050;-83
2023/01/01 05:22:56;;;;;;;11.63;3.10;;;11.40;99.90;;;;;;4963036;28;20497;-83
2023/01/01 05:25:21;;;;;;;9.77;2.47;;;12.80;99.90;;;;;;4998049;28;20046;-82
2023/01/01 05:27:47;;;;;;;15.43;2.97;;;11.40;99.90;;;;;;4987530;28;22175;-82
2023/01/01 05:30:12;;;;;;;11.25;2.92;;;11.40;99.90;;;;;;4958832;28;20034;-81
2023/01/01 05:32:38;;;;;;;8.73;2.72;;;12.00;99.90;;;;;;4973521;28;20135;-82
2023/01/01 05:35:04;;;;;;;14.48;3.30;;;11.50;99.90;;;;;;4970598;28;20509;-82
2023/01/01 05:37:30;;;;;;;10.40;2.70;;;11.40;99.90;;;;;;4981811;28;20052;-82
2023/01/01 05:39:55;;;;;;;9.88;2.63;;;11.50;99.90;;;;;;4972748;28;20050;-84
2023/01/01 05:42:21;;;;;;;9.27;2.70;;;11.50;99.90;;;;;;4966670;28;20486;-85
2023/01/01 05:44:46;;;;;;;11.38;2.08;;;12.10;99.90;;;;;;4987465;28;20103;-84
2023/01/01 05:47:14;;;;;;;13.75;3.13;;;10.40;99.90;;;;;;4981927;28;20046;-82
2023/01/01 05:49:39;;;;;;;12.55;2.10;;;11.80;99.90;;;;;;4987350;28;20140;-82
2023/01/01 05:52:05;;;;;;;7.85;1.85;;;11.50;99.90;;;;;;4968688;28;20142;-81
2023/01/01 05:54:31;;;;;;;7.65;1.60;;;11.60;99.90;;;;;;4980180;28;20096;-82
2023/01/01 05:56:56;;;;;;;10.63;1.70;;;11.60;99.90;;;;;;4996063;28;20049;-82
2023/01/01 05:59:22;;;;;;;5.43;1.55;;;12.00;99.90;;;;;;4992889;28;20192;-81
2023/01/01 06:01:47;;;;;;;6.07;1.65;;;12.30;99.90;;;;;;5007241;28;20042;-81
2023/01/01 06:04:13;;;;;;;10.25;1.70;;;12.20;99.90;;;;;;4986481;28;20046;-80
2023/01/01 06:06:39;;;;;;;7.18;1.60;;;12.70;99.90;;;;;;4980202;28;20777;-82
2023/01/01 06:09:04;;;;;;;7.10;1.40;;;11.60;99.90;;;;;;5012585;28;20038;-81
2023/01/01 06:11:31;;;;;;;6.18;1.60;;;12.00;99.90;;;;;;4981077;28;20046;-82
2023/01/01 06:13:59;;;;;;;8.57;1.35;;;11.50;99.90;;;;;;4995939;28;20053;-82
2023/01/01 06:16:26;;;;;;;7.88;1.42;;;11.50;99.90;;;;;;4985855;28;20426;-81
2023/01/01 06:18:51;;;;;;;6.47;1.05;;;11.50;99.90;;;;;;4988817;28;20050;-82
2023/01/01 06:21:20;;;;;;;2.60;0.63;;;11.70;99.90;;;;;;4979977;28;20043;-85
2023/01/01 06:23:46;;;;;;;9.55;1.35;;;11.50;99.90;;;;;;5006330;28;20057;-81
2023/01/01 06:26:17;;;;;;;7.10;1.08;;;11.50;99.90;;;;;;5008175;28;20046;-81
2023/01/01 06:28:44;;;;;;;5.95;1.20;;;11.00;99.90;;;;;;4998884;28;20042;-81
2023/01/01 06:31:12;;;;;;;7.57;1.25;;;11.60;99.90;;;;;;4989824;28;20054;-80
2023/01/01 06:33:38;;;;;;;9.68;1.55;;;12.60;99.90;;;;;;4969262;28;20074;-81
2023/01/01 06:36:08;;;;;;;9.75;1.75;;;11.70;99.90;;;;;;5009313;28;20530;-81
2023/01/01 06:38:35;;;;;;;10.20;1.30;;;11.50;99.90;;;;;;5011902;28;20046;-82
2023/01/01 06:41:06;;;;;;;10.98;1.45;;;11.40;99.90;;;;;;5011714;28;20141;-81
2023/01/01 06:43:34;;;;;;;5.95;1.30;;;11.40;99.90;;;;;;4984091;28;20513;-80
2023/01/01 06:46:00;;;;;;;8.13;1.25;;;11.30;99.90;;;;;;4978870;28;20057;-81
2023/01/01 06:48:28;;;;;;;9.00;1.08;;;11.30;99.90;;;;;;4986718;28;20498;-81
2023/01/01 06:50:54;;;;;;;10.75;1.25;;;11.30;99.90;;;;;;5010647;28;20047;-80
2023/01/01 06:53:23;;;;;;;7.63;1.60;;;12.00;99.90;;;;;;4990490;28;20100;-81
2023/01/01 06:55:49;;;;;;;8.50;2.13;;;11.40;99.90;;;;;;4995976;28;20038;-81
2023/01/01 06:58:15;;;;;;;8.38;1.42;;;11.30;99.90;;;;;;4978030;28;20052;-81
2023/01/01 07:00:40;;;;;;;7.82;1.50;;;11.70;99.90;;;;;;4980567;28;20057;-81
2023/01/01 07:03:09;;;;;;;8.32;1.50;;;11.40;99.90;;;;;;5010308;28;20100;-80
2023/01/01 07:05:35;;;;;;;15.15;2.10;;;11.30;99.90;;;;;;5009430;28;20729;-81
2023/01/01 07:08:00;;;;;;;13.65;2.13;;;12.00;99.90;;;;;;4987706;28;20038;-80
2023/01/01 07:10:26;;;;;;;14.95;2.30;;;11.20;99.90;;;;;;4985101;28;20495;-80
2023/01/01 07:12:51;;;;;;;11.38;2.13;;;12.40;99.90;;;;;;5012396;28;20046;-80
2023/01/01 07:15:17;;;;;;;19.52;3.10;;;12.40;99.90;;;;;;5027732;28;20053;-79
2023/01/01 07:17:43;;;;;;;11.43;2.33;;;11.50;99.90;;;;;;4976573;28;20050;-79
2023/01/01 07:20:08;;;;;;;15.10;2.95;;;11.20;99.90;;;;;;4988727;28;20046;-81
2023/01/01 07:22:37;;;;;;;14.77;2.58;;;11.10;99.90;;;;;;4982840;28;20093;-80
2023/01/01 07:25:03;;;;;;;20.35;3.25;;;12.20;99.90;;;;;;5003676;28;20042;-80
2023/01/01 07:27:28;;;;;;;13.93;2.78;;;11.10;99.90;;;;;;4987325;28;20042;-81
2023/01/01 07:29:54;;;;;;;18.70;3.30;;;11.10;99.90;;;;;;4987739;28;20052;-79
2023/01/01 07:32:20;;;;;;;16.00;2.78;;;11.10;99.90;;;;;;4984322;28;20081;-81
2023/01/01 07:34:45;;;;;;;20.13;3.63;;;12.30;99.90;;;;;;4986091;28;20046;-80
2023/01/01 07:37:11;;;;;;;17.08;2.22;;;11.00;99.90;;;;;;5013835;28;20560;-79
2023/01/01 07:39:36;;;;;;;17.67;3.13;;;12.00;99.90;;;;;;4987500;28;20042;-80
2023/01/01 07:42:02;;;;;;;18.67;3.20;;;11.00;99.90;;;;;;5009241;28;20049;-81
2023/01/01 07:44:28;;;;;;;17.63;3.33;;;11.00;99.90;;;;;;4986243;28;20129;-80
2023/01/01 07:47:04;;;;;;;12.77;2.40;;;11.00;99.90;;;;;;4982883;28;20065;-80
2023/01/01 07:49:29;;;;;;;19.83;2.50;;;11.00;99.90;;;;;;4987633;28;20053;-80
2023/01/01 07:51:55;;;;;;;13.60;2.35;;;11.00;99.90;;;;;;4991218;28;20042;-79
2023/01/01 07:54:20;;;;;;;23.63;3.83;;;12.40;99.90;;;;;;5002660;28;20050;-81
2023/01/01 07:56:46;;;;;;;15.82;3.65;;;12.10;99.90;;;;;;4968196;28;20165;-81
2023/01/01 07:59:12;;;;;;;15.15;2.65;;;10.90;99.90;;;;;;5007508;28;20078;-80
2023/01/01 08:01:37;;;;;;;13.60;2.45;;;10.90;99.90;;;;;;4973422;28;20034;-80
2023/01/01 08:04:04;;;;;;;20.58;3.17;;;10.90;99.90;;;;;;4985126;28;20182;-80
2023/01/01 08:06:29;;;;;;;22.05;2.55;;;10.90;99.90;;;;;;4979859;28;20042;-79
2023/01/01 08:08:55;;;;;;;23.73;3.85;;;10.90;99.90;;;;;;4987459;28;20068;-80
2023/01/01 08:11:21;;;;;;;13.57;3.05;;;11.10;99.90;;;;;;4960603;28;20181;-79
2023/01/01 08:13:46;;;;;;;32.22;5.47;;;12.20;99.90;;;;;;4987574;28;20066;-80
2023/01/01 08:16:12;;;;;;;19.67;3.15;;;10.90;99.90;;;;;;4977274;28;20117;-80
2023/01/01 08:18:37;;;;;;;23.75;2.75;;;10.90;99.90;;;;;;4986710;28;20074;-80
2023/01/01 08:21:03;;;;;;;23.05;3.25;;;10.90;99.90;;;;;;4979546;28;20749;-80
2023/01/01 08:23:29;;;;;;;24.65;3.60;;;11.00;99.90;;;;;;4989159;28;20667;-80
2023/01/01 08:26:01;;;;;;;18.90;3.60;;;12.10;99.90;;;;;;4990884;28;20078;-79
2023/01/01 08:28:28;;;;;;;17.45;3.17;;;12.10;99.90;;;;;;4976553;28;20073;-81
2023/01/01 08:30:53;;;;;;;19.15;3.47;;;10.90;99.90;;;;;;4993053;28;20456;-81
2023/01/01 08:33:20;;;;;;;24.42;3.72;;;11.00;99.90;;;;;;5010356;28;20231;-79
2023/01/01 08:35:45;;;;;;;26.15;3.85;;;11.00;99.90;;;;;;4986717;28;20045;-79
2023/01/01 08:38:11;;;;;;;21.98;4.07;;;10.90;99.90;;;;;;5003727;28;20030;-79
2023/01/01 08:40:37;;;;;;;19.30;3.22;;;10.90;99.90;;;;;;4988872;28;20042;-79
2023/01/01 08:43:03;;;;;;;24.35;4.10;;;10.90;99.90;;;;;;4996584;28;20049;-80
2023/01/01 08:45:28;;;;;;;22.30;3.97;;;11.50;99.90;;;;;;4989019;28;20062;-80
2023/01/01 08:47:54;;;;;;;23.42;3.70;;;10.90;99.90;;;;;;4988053;28;20054;-80
2023/01/01 08:50:20;;;;;;;24.73;4.35;;;12.00;99.90;;;;;;5007881;28;20553;-81
2023/01/01 08:52:45;;;;;;;21.23;3.90;;;10.90;99.90;;;;;;4959785;28;20112;-80
2023/01/01 08:55:11;;;;;;;26.20;5.40;;;11.70;99.90;;;;;;4988510;28;20490;-80
2023/01/01 08:57:39;;;;;;;18.65;3.17;;;10.90;99.90;;;;;;4973175;28;20038;-80
2023/01/01 09:00:08;;;;;;;15.20;2.75;;;10.90;99.90;;;;;;4987731;28;20073;-80
2023/01/01 09:02:34;;;;;;;21.05;4.28;;;10.80;99.90;;;;;;4988365;28;20474;-79
2023/01/01 09:04:59;;;;;;;17.60;2.70;;;10.90;99.90;;;;;;4971956;28;20057;-79
2023/01/01 09:07:25;;;;;;;22.88;3.13;;;12.20;99.90;;;;;;4987770;28;20034;-80
2023/01/01 09:09:51;;;;;;;21.73;3.80;;;12.20;99.90;;;;;;5004073;28;20050;-79
2023/01/01 09:12:16;;;;;;;20.25;4.22;;;10.90;99.90;;;;;;5003497;28;20044;-80
2023/01/01 09:14:45;;;;;;;20.60;3.13;;;12.30;99.90;;;;;;5002699;28;20137;-80
2023/01/01 09:17:11;;;;;;;23.73;3.80;;;10.90;99.90;;;;;;4985433;28;20050;-80
2023/01/01 09:19:36;;;;;;;25.77;4.30;;;10.90;99.90;;;;;;4976384;28;20042;-81
2023/01/01 09:22:02;;;;;;;17.08;3.67;;;10.90;99.90;;;;;;4989110;28;20042;-81
2023/01/01 09:24:28;;;;;;;29.23;4.70;;;10.80;99.90;;;;;;5003900;28;20117;-82
2023/01/01 09:26:53;;;;;;;17.30;3.28;;;10.90;99.90;;;;;;4989220;28;20054;-79
2023/01/01 09:29:19;;;;;;;28.67;3.90;;;10.90;99.90;;;;;;4988989;28;20485;-81
2023/01/01 09:31:45;;;;;;;19.33;3.85;;;9.60;99.90;;;;;;4980251;28;20050;-80
2023/01/01 09:34:11;;;;;;;22.02;3.25;;;11.60;99.90;;;;;;4986172;28;20080;-80
2023/01/01 09:36:37;;;;;;;21.50;3.55;;;10.90;99.90;;;;;;4988340;28;20065;-80
2023/01/01 09:39:03;;;;;;;21.10;3.85;;;10.90;99.90;;;;;;5007439;28;20042;-80
2023/01/01 09:41:53;;;;;;;22.10;4.38;;;10.90;99.90;;;;;;4990598;28;20042;-80
2023/01/01 09:44:49;;;;;;;18.20;3.60;;;10.90;99.90;;;;;;4986354;28;20065;-79
2023/01/01 09:47:39;;;;;;;24.10;3.88;;;10.90;99.90;;;;;;5005052;28;20058;-81
2023/01/01 09:50:11;;;;;;;26.55;4.30;;;10.90;99.90;;;;;;4955678;28;20494;-80
2023/01/01 09:52:52;;;;;;;29.13;4.20;;;10.90;99.90;;;;;;4985621;28;20117;-79
2023/01/01 09:55:37;;;;;;;26.25;3.38;;;10.90;99.90;;;;;;4989601;28;20038;-79
2023/01/01 09:58:10;;;;;;;23.65;4.30;;;10.90;99.90;;;;;;4970186;28;20046;-79
2023/01/01 10:00:38;;;;;;;21.70;3.55;;;10.90;99.90;;;;;;4968266;28;20122;-80
2023/01/01 10:03:24;;;;;;;24.15;5.45;;;11.50;99.90;;;;;;4968430;28;20450;-80
2023/01/01 10:06:06;;;;;;;21.00;3.95;;;10.90;99.90;;;;;;4986234;28;20829;-80
2023/01/01 10:08:55;;;;;;;25.50;4.70;;;10.70;99.90;;;;;;5004125;28;20070;-80
2023/01/01 10:11:42;;;;;;;26.27;4.38;;;11.00;99.90;;;;;;4979040;28;20058;-80
2023/01/01 10:14:30;;;;;;;22.88;3.95;;;10.90;99.90;;;;;;5004567;28;20042;-80
2023/01/01 10:16:58;;;;;;;26.23;3.25;;;10.90;99.90;;;;;;4988076;28;20050;-80
2023/01/01 10:19:35;;;;;;;23.92;4.60;;;12.10;99.90;;;;;;4968356;28;20495;-81
2023/01/01 10:22:10;;;;;;;26.27;3.58;;;11.00;99.90;;;;;;5019420;28;20042;-80
2023/01/01 10:24:38;;;;;;;22.83;3.70;;;11.10;99.90;;;;;;4313045;28;10000672;-81
2023/01/01 10:27:05;;;;;;;25.90;3.63;;;11.10;99.90;;;;;;4969314;28;20046;-82
2023/01/01 10:29:41;;;;;;;19.55;3.17;;;11.10;99.90;;;;;;5000101;28;20034;-80
2023/01/01 10:32:18;;;;;;;24.60;4.72;;;11.00;99.90;;;;;;4969157;28;20562;-80
2023/01/01 10:34:45;;;;;;;25.23;4.18;;;11.10;99.90;;;;;;4980282;28;20034;-81
2023/01/01 10:37:11;;;;;;;19.40;3.55;;;11.10;99.90;;;;;;4967335;28;20125;-81
2023/01/01 10:39:38;;;;;;;19.58;3.38;;;12.20;99.90;;;;;;5001525;28;20042;-81
2023/01/01 10:42:04;;;;;;;20.90;3.47;;;11.20;99.90;;;;;;5010388;28;20124;-80
2023/01/01 10:44:34;;;;;;;19.08;3.50;;;11.00;99.90;;;;;;5010673;28;20561;-81
2023/01/01 10:47:24;;;;;;;23.15;3.38;;;11.00;99.90;;;;;;4999377;28;20502;-80
2023/01/01 10:49:58;;;;;;;25.83;6.10;;;11.10;99.90;;;;;;4997441;28;20053;-82
2023/01/01 10:52:36;;;;;;;20.40;3.25;;;11.00;99.90;;;;;;4994225;28;20041;-82
2023/01/01 10:55:03;;;;;;;17.33;2.80;;;10.90;99.90;;;;;;5014541;28;20069;-80
2023/01/01 10:57:33;;;;;;;24.63;3.67;;;11.00;99.90;;;;;;4991650;28;20069;-82
2023/01/01 11:00:17;;;;;;;14.38;2.85;;;11.20;99.90;;;;;;5003789;28;20481;-81
2023/01/01 11:02:43;;;;;;;17.38;2.63;;;11.00;99.90;;;;;;4999242;28;20039;-80
2023/01/01 11:05:20;;;;;;;13.77;2.70;;;11.00;99.90;;;;;;4984237;28;20465;-79
2023/01/01 11:07:46;;;;;;;13.65;3.45;;;11.00;99.90;;;;;;4972942;28;20065;-81
2023/01/01 11:10:24;;;;;;;23.73;2.63;;;11.00;99.90;;;;;;4981998;28;20065;-79
2023/01/01 11:12:52;;;;;;;14.85;2.92;;;11.00;99.90;;;;;;4982864;28;20097;-80
2023/01/01 11:15:37;;;;;;;17.77;2.67;;;11.00;99.90;;;;;;5000236;28;20045;-82
2023/01/01 11:18:09;;;;;;;13.88;3.20;;;11.00;99.90;;;;;;5001307;28;20074;-78
2023/01/01 11:20:35;;;;;;;15.70;4.07;;;11.00;99.90;;;;;;5002359;28;20044;-84
2023/01/01 11:23:28;;;;;;;15.50;3.50;;;11.10;99.90;;;;;;5000314;28;20042;-80
2023/01/01 11:26:01;;;;;;;14.13;3.35;;;11.10;99.90;;;;;;4999924;28;20054;-82
2023/01/01 11:28:30;;;;;;;19.10;2.95;;;11.00;99.90;;;;;;5002194;28;20125;-80
2023/01/01 11:31:09;;;;;;;15.88;2.85;;;11.00;99.90;;;;;;4967807;28;20121;-83
2023/01/01 11:33:42;;;;;;;16.42;2.97;;;11.00;99.90;;;;;;4968680;28;20503;-82
2023/01/01 11:36:08;;;;;;;10.20;2.05;;;11.00;99.90;;;;;;4998339;28;20074;-82
2023/01/01 11:38:33;;;;;;;13.35;2.78;;;11.00;99.90;;;;;;4967456;28;20070;-82
2023/01/01 11:41:06;;;;;;;10.82;2.25;;;11.10;99.90;;;;;;4975256;28;20482;-80
2023/01/01 11:43:45;;;;;;;12.93;2.17;;;11.10;99.90;;;;;;4982020;28;20038;-80
2023/01/01 11:46:16;;;;;;;15.68;2.72;;;11.20;99.90;;;;;;4985411;28;20410;-80
2023/01/01 11:48:43;;;;;;;16.15;3.00;;;12.10;99.90;;;;;;4986697;28;20053;-83
2023/01/01 11:51:25;;;;;;;17.67;2.05;;;11.00;99.90;;;;;;5000388;28;20450;-81
2023/01/01 11:54:09;;;;;;;20.40;3.40;;;11.90;99.90;;;;;;4977155;28;20073;-79
2023/01/01 11:56:36;;;;;;;24.60;3.10;;;11.10;99.90;;;;;;4965484;28;20042;-80
2023/01/01 11:59:15;;;;;;;14.32;2.92;;;11.00;99.90;;;;;;5000628;28;20042;-81
2023/01/01 12:01:56;;;;;;;15.18;2.47;;;11.10;99.90;;;;;;5001102;28;20081;-83
2023/01/01 12:04:30;;;;;;;21.17;2.80;;;11.10;99.90;;;;;;4965831;28;20045;-81
2023/01/01 12:06:58;;;;;;;16.48;2.88;;;11.10;99.90;;;;;;4963804;28;20100;-83
2023/01/01 12:09:32;;;;;;;15.23;2.08;;;11.10;99.90;;;;;;4960530;28;20077;-81
2023/01/01 12:12:09;;;;;;;10.32;2.72;;;11.20;99.90;;;;;;4961390;28;20118;-83
2023/01/01 12:15:03;;;;;;;12.82;2.60;;;11.30;99.90;;;;;;4979918;28;20550;-83
2023/01/01 12:17:40;;;;;;;13.53;2.63;;;11.30;99.90;;;;;;4985632;28;20197;-81
2023/01/01 12:20:20;;;;;;;15.02;2.17;;;11.40;99.90;;;;;;4964621;28;20050;-82
2023/01/01 12:22:47;;;;;;;18.42;3.08;;;11.30;99.90;;;;;;4976924;28;20132;-81
2023/01/01 12:25:16;;;;;;;16.17;2.50;;;11.30;99.90;;;;;;4979505;28;20644;-80
2023/01/01 12:27:54;;;;;;;14.07;2.95;;;11.30;99.90;;;;;;4994357;28;21880;-82
2023/01/01 12:30:30;;;;;;;13.65;2.60;;;11.30;99.90;;;;;;4984338;28;20069;-81
2023/01/01 12:33:07;;;;;;;17.50;3.15;;;11.30;99.90;;;;;;4986821;28;20137;-81
2023/01/01 12:35:58;;;;;;;18.65;3.20;;;11.40;99.90;;;;;;5002525;28;20120;-81
2023/01/01 12:38:36;;;;;;;15.20;2.85;;;11.40;99.90;;;;;;4993270;28;20046;-79
2023/01/01 12:41:22;;;;;;;17.52;2.50;;;11.50;99.90;;;;;;4977777;28;20045;-78
2023/01/01 12:44:22;;;;;;;22.92;3.53;;;11.40;99.90;;;;;;4995131;28;20046;-81
2023/01/01 12:46:54;;;;;;;15.43;2.72;;;11.40;99.90;;;;;;4978200;28;20096;-79
2023/01/01 12:49:50;;;;;;;23.60;3.35;;;11.50;99.90;;;;;;4985116;28;20111;-80
2023/01/01 12:52:39;;;;;;;14.23;2.72;;;11.50;99.90;;;;;;4998609;28;20046;-80
2023/01/01 12:55:29;;;;;;;14.77;3.42;;;11.40;99.90;;;;;;5005055;28;20832;-82